createdAt,value
2022-10-09T00:01:05.125Z,6.35
2022-10-09T00:03:32.720Z,6.18
2022-10-09T00:06:00.105Z,5.63
2022-10-09T00:08:27.376Z,6.22
2022-10-09T00:10:54.530Z,5.97
2022-10-09T00:13:21.656Z,6.10
2022-10-09T00:15:48.848Z,6.43
2022-10-09T00:18:17.418Z,6.10
2022-10-09T00:20:45.226Z,5.43
2022-10-09T00:23:14.592Z,5.75
2022-10-09T00:25:56.315Z,5.30
2022-10-09T00:28:24.253Z,5.40
2022-10-09T00:30:51.707Z,5.63
2022-10-09T00:33:19.194Z,5.95
2022-10-09T00:35:46.475Z,5.65
2022-10-09T00:38:13.658Z,6.20
2022-10-09T00:40:40.870Z,5.80
2022-10-09T00:43:19.799Z,5.72
2022-10-09T00:45:52.561Z,5.68
2022-10-09T00:48:19.778Z,5.60
2022-10-09T00:50:52.958Z,5.57
2022-10-09T00:53:21.089Z,6.47
2022-10-09T00:55:48.278Z,5.85
2022-10-09T00:58:15.427Z,5.85
2022-10-09T01:00:42.601Z,5.22
2022-10-09T01:03:09.757Z,5.10
2022-10-09T01:06:10.621Z,5.55
2022-10-09T01:09:01.744Z,5.50
2022-10-09T01:11:55.653Z,5.60
2022-10-09T01:14:24.636Z,5.35
2022-10-09T01:17:00.904Z,5.70
2022-10-09T01:19:41.670Z,5.10
2022-10-09T01:22:27.623Z,5.38
2022-10-09T01:25:08.023Z,5.32
2022-10-09T01:27:35.967Z,5.30
2022-10-09T01:30:07.957Z,5.10
2022-10-09T01:32:37.483Z,5.75
2022-10-09T01:35:05.901Z,5.15
2022-10-09T01:37:33.368Z,6.05
2022-10-09T01:40:00.546Z,6.07
2022-10-09T01:42:27.935Z,5.95
2022-10-09T01:44:55.097Z,6.03
2022-10-09T01:47:22.403Z,5.82
2022-10-09T01:50:07.987Z,5.50
2022-10-09T01:52:47.358Z,6.18
2022-10-09T01:55:33.528Z,5.55
2022-10-09T01:58:23.601Z,5.22
2022-10-09T02:01:13.730Z,5.63
2022-10-09T02:03:41.648Z,5.70
2022-10-09T02:06:09.249Z,6.18
2022-10-09T02:08:36.995Z,5.70
2022-10-09T02:11:04.223Z,6.43
2022-10-09T02:13:34.525Z,5.97
2022-10-09T02:16:27.178Z,5.82
2022-10-09T02:19:04.129Z,6.47
2022-10-09T02:21:39.415Z,6.38
2022-10-09T02:24:07.716Z,6.70
2022-10-09T02:26:34.858Z,6.35
2022-10-09T02:29:01.988Z,6.47
2022-10-09T02:31:30.489Z,6.78
2022-10-09T02:34:02.456Z,7.03
2022-10-09T02:36:30.318Z,6.55
2022-10-09T02:38:57.683Z,6.93
2022-10-09T02:41:24.817Z,7.13
2022-10-09T02:43:51.981Z,7.22
2022-10-09T02:46:19.227Z,7.22
2022-10-09T02:48:46.381Z,7.68
2022-10-09T02:51:13.607Z,7.60
2022-10-09T02:53:40.744Z,7.10
2022-10-09T02:56:08.057Z,7.20
2022-10-09T02:58:35.562Z,8.05
2022-10-09T03:01:03.119Z,7.57
2022-10-09T03:03:30.274Z,7.25
2022-10-09T03:06:02.043Z,7.40
2022-10-09T03:08:29.209Z,7.28
2022-10-09T03:10:56.556Z,8.23
2022-10-09T03:13:23.675Z,8.05
2022-10-09T03:15:50.875Z,7.95
2022-10-09T03:18:18.126Z,7.68
2022-10-09T03:20:45.398Z,7.72
2022-10-09T03:23:12.573Z,8.15
2022-10-09T03:25:39.748Z,7.95
2022-10-09T03:28:06.881Z,8.13
2022-10-09T03:30:34.117Z,7.60
2022-10-09T03:33:01.278Z,8.15
2022-10-09T03:35:28.598Z,8.07
2022-10-09T03:37:55.722Z,8.25
2022-10-09T03:40:22.848Z,8.38
2022-10-09T03:42:50.323Z,9.05
2022-10-09T03:45:17.673Z,8.73
2022-10-09T03:47:44.786Z,9.40
2022-10-09T03:50:11.922Z,8.50
2022-10-09T03:52:40.069Z,8.68
2022-10-09T03:55:07.917Z,9.35
2022-10-09T03:57:35.410Z,9.18
2022-10-09T04:00:02.576Z,9.10
2022-10-09T04:02:32.777Z,8.45
2022-10-09T04:05:00.030Z,8.07
2022-10-09T04:07:27.156Z,8.40
2022-10-09T04:09:54.297Z,7.50
2022-10-09T04:12:21.494Z,7.90
2022-10-09T04:14:48.614Z,7.45
2022-10-09T04:17:16.328Z,7.25
2022-10-09T04:19:43.458Z,6.97
2022-10-09T04:22:10.585Z,7.07
2022-10-09T04:24:37.734Z,7.28
2022-10-09T04:27:04.871Z,7.38
2022-10-09T04:29:31.997Z,7.68
2022-10-09T04:31:59.201Z,7.03
2022-10-09T04:34:26.394Z,6.85
2022-10-09T04:36:53.539Z,7.32
2022-10-09T04:39:20.659Z,6.95
2022-10-09T04:41:47.774Z,7.38
2022-10-09T04:44:14.915Z,7.75
2022-10-09T04:46:42.071Z,6.93
2022-10-09T04:49:13.423Z,7.25
2022-10-09T04:51:40.934Z,6.82
2022-10-09T04:54:08.845Z,7.55
2022-10-09T04:56:36.018Z,6.78
2022-10-09T04:59:03.146Z,6.75
2022-10-09T05:01:37.091Z,7.57
2022-10-09T05:04:05.363Z,7.05
2022-10-09T05:06:32.505Z,7.20
2022-10-09T05:08:59.642Z,7.65
2022-10-09T05:11:27.190Z,7.00
2022-10-09T05:13:55.412Z,7.47
2022-10-09T05:16:27.234Z,7.13
2022-10-09T05:18:56.014Z,7.05
2022-10-09T05:21:23.307Z,7.40
2022-10-09T05:23:50.738Z,7.07
2022-10-09T05:26:18.853Z,7.18
2022-10-09T05:28:46.418Z,6.90
2022-10-09T05:31:22.855Z,6.88
2022-10-09T05:33:50.304Z,6.90
2022-10-09T05:36:17.590Z,6.63
2022-10-09T05:38:45.085Z,7.28
2022-10-09T05:41:13.930Z,6.50
2022-10-09T05:43:42.487Z,6.57
2022-10-09T05:46:20.382Z,6.63
2022-10-09T05:48:52.652Z,6.82
2022-10-09T05:51:22.327Z,6.25
2022-10-09T05:53:49.512Z,6.53
2022-10-09T05:56:19.645Z,7.32
2022-10-09T05:59:00.402Z,6.65
2022-10-09T06:01:29.254Z,7.00
2022-10-09T06:03:57.610Z,7.25
2022-10-09T06:06:26.357Z,6.70
2022-10-09T06:08:53.574Z,6.70
2022-10-09T06:11:28.656Z,6.15
2022-10-09T06:13:56.200Z,6.20
2022-10-09T06:16:24.797Z,6.63
2022-10-09T06:18:52.591Z,6.50
2022-10-09T06:21:19.703Z,6.82
2022-10-09T06:23:54.662Z,7.30
2022-10-09T06:26:22.077Z,6.38
2022-10-09T06:28:49.243Z,7.20
2022-10-09T06:31:24.116Z,7.00
2022-10-09T06:33:51.546Z,7.38
2022-10-09T06:36:23.284Z,6.97
2022-10-09T06:38:50.686Z,6.93
2022-10-09T06:41:19.395Z,7.07
2022-10-09T06:44:16.546Z,6.40
2022-10-09T06:46:44.726Z,6.95
2022-10-09T06:49:12.962Z,7.10
2022-10-09T06:51:40.162Z,6.93
2022-10-09T06:54:11.427Z,7.50
2022-10-09T06:56:38.664Z,7.30
2022-10-09T06:59:06.377Z,8.05
2022-10-09T07:01:33.786Z,7.70
2022-10-09T07:04:03.707Z,7.50
2022-10-09T07:06:31.457Z,7.50
2022-10-09T07:09:01.375Z,7.88
2022-10-09T07:11:30.667Z,7.70
2022-10-09T07:13:59.227Z,7.72
2022-10-09T07:16:30.890Z,7.70
2022-10-09T07:19:00.043Z,7.78
2022-10-09T07:21:27.310Z,8.20
2022-10-09T07:23:54.425Z,7.78
2022-10-09T07:26:25.706Z,7.47
2022-10-09T07:28:53.041Z,6.78
2022-10-09T07:31:20.296Z,7.38
2022-10-09T07:33:48.489Z,7.13
2022-10-09T07:36:15.604Z,7.05
2022-10-09T07:38:42.882Z,7.30
2022-10-09T07:41:11.539Z,7.40
2022-10-09T07:43:39.727Z,7.72
2022-10-09T07:46:08.257Z,7.72
2022-10-09T07:48:35.591Z,6.82
2022-10-09T07:51:09.798Z,6.63
2022-10-09T07:56:04.525Z,7.10
2022-10-09T07:58:31.828Z,7.40
2022-10-09T08:01:08.188Z,7.10
2022-10-09T08:03:36.058Z,7.88
2022-10-09T08:06:03.298Z,7.82
2022-10-09T08:08:30.434Z,8.00
2022-10-09T08:10:57.549Z,7.13
2022-10-09T08:13:24.725Z,7.65
2022-10-09T08:15:52.056Z,7.20
2022-10-09T08:18:19.223Z,7.53
2022-10-09T08:20:56.630Z,7.13
2022-10-09T08:23:23.951Z,7.75
2022-10-09T08:25:51.105Z,7.35
2022-10-09T08:28:18.306Z,7.03
2022-10-09T08:30:45.471Z,6.82
2022-10-09T08:33:12.725Z,7.20
2022-10-09T08:35:39.871Z,7.47
2022-10-09T08:38:07.035Z,8.00
2022-10-09T08:40:42.852Z,7.10
2022-10-09T08:43:13.699Z,6.80
2022-10-09T08:45:40.826Z,6.90
2022-10-09T08:48:12.446Z,6.45
2022-10-09T08:50:40.219Z,6.63
2022-10-09T08:53:07.327Z,7.00
2022-10-09T08:55:43.661Z,7.15
2022-10-09T08:58:15.200Z,7.20
2022-10-09T09:01:24.244Z,6.95
2022-10-09T09:04:22.553Z,6.85
2022-10-09T09:07:12.694Z,7.30
2022-10-09T09:09:53.522Z,7.18
2022-10-09T09:12:47.453Z,7.13
2022-10-09T09:15:40.856Z,7.18
2022-10-09T09:18:32.246Z,7.70
2022-10-09T09:21:15.885Z,7.75
2022-10-09T09:23:44.815Z,7.85
2022-10-09T09:26:20.166Z,7.65
2022-10-09T09:28:48.806Z,8.02
2022-10-09T09:31:28.155Z,8.35
2022-10-09T09:34:20.690Z,8.10
2022-10-09T09:36:58.298Z,7.30
2022-10-09T09:42:16.854Z,7.85
2022-10-09T09:45:00.328Z,7.32
2022-10-09T09:47:38.626Z,7.60
2022-10-09T09:50:06.486Z,7.40
2022-10-09T09:52:39.607Z,7.07
2022-10-09T09:55:07.034Z,6.78
2022-10-09T09:57:35.894Z,6.93
2022-10-09T10:00:21.447Z,6.80
2022-10-09T10:02:49.611Z,6.38
2022-10-09T10:05:21.714Z,6.88
2022-10-09T10:07:51.317Z,6.78
2022-10-09T10:10:24.707Z,6.13
2022-10-09T10:12:52.940Z,6.28
2022-10-09T10:15:24.815Z,6.10
2022-10-09T10:18:12.215Z,6.40
2022-10-09T10:20:47.279Z,6.15
2022-10-09T10:23:37.700Z,6.15
2022-10-09T10:26:27.128Z,6.32
2022-10-09T10:29:12.834Z,5.60
2022-10-09T10:31:53.838Z,5.68
2022-10-09T10:34:31.905Z,5.15
2022-10-09T10:37:22.712Z,5.03
2022-10-09T10:39:59.054Z,4.97
2022-10-09T10:42:33.623Z,5.10
2022-10-09T10:45:09.258Z,5.22
2022-10-09T10:47:37.345Z,4.72
2022-10-09T10:50:04.802Z,5.25
2022-10-09T10:52:44.178Z,4.47
2022-10-09T10:55:37.195Z,4.45
2022-10-09T10:58:26.918Z,4.25
2022-10-09T11:01:21.342Z,4.38
2022-10-09T11:04:02.629Z,4.15
2022-10-09T11:06:54.109Z,4.50
2022-10-09T11:09:33.403Z,4.63
2022-10-09T11:12:46.848Z,4.15
2022-10-09T11:15:22.176Z,4.03
2022-10-09T11:17:49.307Z,4.68
2022-10-09T11:20:28.434Z,4.28
2022-10-09T11:23:17.169Z,3.92
2022-10-09T11:25:56.310Z,4.38
2022-10-09T11:28:45.570Z,4.30
2022-10-09T11:31:34.419Z,4.25
2022-10-09T11:34:07.147Z,4.20
2022-10-09T11:36:42.544Z,4.20
2022-10-09T11:39:23.628Z,4.15
2022-10-09T11:41:51.969Z,4.40
2022-10-09T11:44:22.224Z,4.40
2022-10-09T11:47:01.749Z,3.80
2022-10-09T11:49:50.259Z,4.40
2022-10-09T11:52:42.009Z,4.47
2022-10-09T11:55:28.132Z,3.97
2022-10-09T11:57:55.288Z,4.35
2022-10-09T12:00:33.635Z,4.00
2022-10-09T12:03:02.654Z,4.00
2022-10-09T12:05:35.967Z,3.83
2022-10-09T12:08:13.034Z,4.35
2022-10-09T12:10:53.769Z,4.43
2022-10-09T12:13:39.311Z,4.18
2022-10-09T12:16:07.183Z,3.97
2022-10-09T12:18:39.588Z,4.10
2022-10-09T12:21:08.450Z,4.10
2022-10-09T12:23:37.255Z,3.63
2022-10-09T12:26:04.391Z,4.25
2022-10-09T12:29:00.143Z,4.38
2022-10-09T12:31:33.289Z,3.70
2022-10-09T12:34:04.957Z,4.45
2022-10-09T12:36:33.474Z,4.22
2022-10-09T12:39:13.281Z,4.38
2022-10-09T12:41:40.425Z,4.05
2022-10-09T12:44:08.711Z,4.25
2022-10-09T12:46:37.204Z,4.47
2022-10-09T12:49:05.801Z,4.43
2022-10-09T12:51:33.401Z,4.00
2022-10-09T12:54:01.046Z,4.18
2022-10-09T12:56:36.898Z,4.03
2022-10-09T12:59:04.358Z,4.15
2022-10-09T13:01:31.597Z,4.20
2022-10-09T13:03:59.535Z,4.15
2022-10-09T13:06:36.610Z,4.00
2022-10-09T13:09:07.478Z,4.28
2022-10-09T13:11:40.367Z,4.60
2022-10-09T13:14:08.055Z,3.90
2022-10-09T13:16:43.712Z,3.88
2022-10-09T13:19:31.476Z,4.00
2022-10-09T13:22:06.515Z,3.53
2022-10-09T13:24:35.642Z,3.70
2022-10-09T13:27:03.910Z,3.78
2022-10-09T13:29:31.460Z,3.75
2022-10-09T13:31:58.696Z,3.83
2022-10-09T13:34:29.126Z,3.40
2022-10-09T13:36:56.918Z,3.40
2022-10-09T13:39:24.103Z,3.70
2022-10-09T13:41:55.613Z,3.47
2022-10-09T13:44:22.783Z,3.70
2022-10-09T13:46:49.915Z,3.38
2022-10-09T13:49:17.078Z,4.25
2022-10-09T13:51:44.206Z,3.55
2022-10-09T13:54:11.329Z,3.67
2022-10-09T13:56:38.442Z,3.42
2022-10-09T13:59:05.619Z,3.38
2022-10-09T14:01:32.806Z,3.67
2022-10-09T14:04:00.080Z,4.10
2022-10-09T14:06:27.187Z,3.42
2022-10-09T14:08:54.359Z,3.92
2022-10-09T14:11:21.537Z,3.58
2022-10-09T14:13:48.689Z,3.90
2022-10-09T14:16:15.848Z,3.53
2022-10-09T14:18:43.037Z,3.80
2022-10-09T14:21:15.382Z,3.95
2022-10-09T14:23:43.205Z,4.10
2022-10-09T14:26:10.334Z,3.78
2022-10-09T14:28:37.741Z,4.03
2022-10-09T14:31:06.157Z,3.72
2022-10-09T14:33:33.429Z,4.22
2022-10-09T14:36:11.560Z,3.80
2022-10-09T14:38:43.873Z,3.70
2022-10-09T14:41:13.974Z,4.20
2022-10-09T14:43:47.828Z,4.15
2022-10-09T14:46:20.548Z,3.95
2022-10-09T14:48:50.494Z,3.83
2022-10-09T14:51:19.854Z,4.15
2022-10-09T14:53:47.376Z,4.20
2022-10-09T14:56:17.109Z,4.00
2022-10-09T14:58:44.462Z,4.20
2022-10-09T15:01:14.857Z,3.90
2022-10-09T15:03:42.333Z,4.07
2022-10-09T15:06:10.472Z,4.43
2022-10-09T15:08:41.334Z,4.18
2022-10-09T15:11:09.663Z,4.32
2022-10-09T15:13:39.540Z,4.68
2022-10-09T15:16:09.122Z,4.20
2022-10-09T15:18:36.502Z,4.20
2022-10-09T15:21:04.017Z,3.90
2022-10-09T15:23:33.677Z,4.57
2022-10-09T15:26:01.364Z,4.47
2022-10-09T15:28:28.726Z,4.18
2022-10-09T15:31:00.752Z,4.28
2022-10-09T15:33:39.288Z,4.00
2022-10-09T15:36:06.928Z,3.85
2022-10-09T15:38:34.224Z,3.97
2022-10-09T15:41:01.418Z,4.03
2022-10-09T15:43:28.799Z,3.92
2022-10-09T15:46:02.563Z,4.07
2022-10-09T15:48:29.766Z,4.18
2022-10-09T15:50:57.138Z,3.95
2022-10-09T15:53:24.788Z,4.25
2022-10-09T15:55:52.819Z,4.13
2022-10-09T15:58:20.157Z,3.88
2022-10-09T16:00:48.771Z,4.22
2022-10-09T16:03:16.705Z,3.97
2022-10-09T16:05:46.960Z,3.85
2022-10-09T16:08:14.257Z,4.45
2022-10-09T16:10:46.430Z,3.85
2022-10-09T16:13:16.108Z,3.85
2022-10-09T16:15:43.971Z,3.97
2022-10-09T16:18:11.339Z,4.32
2022-10-09T16:20:38.743Z,4.35
2022-10-09T16:23:06.434Z,3.75
2022-10-09T16:25:33.775Z,3.95
2022-10-09T16:28:00.944Z,3.83
2022-10-09T16:30:28.362Z,3.67
2022-10-09T16:32:55.489Z,3.50
2022-10-09T16:35:22.762Z,3.83
2022-10-09T16:37:52.071Z,3.55
2022-10-09T16:40:21.033Z,3.30
2022-10-09T16:42:52.934Z,3.80
2022-10-09T16:45:20.260Z,3.58
2022-10-09T16:47:48.554Z,3.78
2022-10-09T16:50:16.069Z,3.75
2022-10-09T16:52:43.215Z,3.85
2022-10-09T16:55:10.382Z,3.28
2022-10-09T16:57:37.543Z,4.00
2022-10-09T17:00:05.561Z,3.60
2022-10-09T17:02:32.755Z,3.60
2022-10-09T17:04:59.980Z,3.33
2022-10-09T17:07:27.190Z,3.45
2022-10-09T17:09:54.375Z,3.88
2022-10-09T17:12:21.535Z,3.70
2022-10-09T17:14:48.657Z,3.50
2022-10-09T17:17:15.842Z,3.40
2022-10-09T17:19:43.807Z,3.47
2022-10-09T17:22:11.005Z,3.55
2022-10-09T17:24:38.163Z,3.65
2022-10-09T17:27:08.946Z,3.35
2022-10-09T17:29:36.696Z,3.33
2022-10-09T17:32:04.643Z,3.33
2022-10-09T17:34:32.164Z,3.42
2022-10-09T17:36:59.292Z,3.95
2022-10-09T17:39:26.418Z,3.83
2022-10-09T17:41:53.648Z,3.38
2022-10-09T17:44:22.878Z,3.50
2022-10-09T17:46:50.050Z,3.80
2022-10-09T17:49:17.248Z,3.80
2022-10-09T17:51:44.452Z,3.83
2022-10-09T17:54:16.805Z,3.83
2022-10-09T17:56:44.351Z,3.80
2022-10-09T17:59:11.853Z,3.78
2022-10-09T18:01:39.087Z,3.97
2022-10-09T18:04:06.255Z,3.80
2022-10-09T18:06:34.357Z,3.63
2022-10-09T18:09:01.503Z,3.75
2022-10-09T18:11:29.855Z,3.90
2022-10-09T18:13:57.097Z,3.40
2022-10-09T18:16:35.239Z,3.60
2022-10-09T18:19:08.054Z,3.60
2022-10-09T18:21:35.574Z,3.83
2022-10-09T18:24:02.710Z,3.97
2022-10-09T18:26:29.844Z,4.15
2022-10-09T18:28:58.466Z,3.72
2022-10-09T18:31:25.646Z,4.15
2022-10-09T18:33:52.917Z,4.68
2022-10-09T18:36:24.231Z,4.28
2022-10-09T18:38:52.986Z,4.65
2022-10-09T18:41:20.567Z,4.70
2022-10-09T18:43:47.797Z,4.25
2022-10-09T18:46:15.984Z,4.40
2022-10-09T18:48:43.234Z,4.35
2022-10-09T18:51:21.260Z,4.00
2022-10-09T18:53:50.866Z,4.32
2022-10-09T18:56:18.913Z,4.82
2022-10-09T18:58:46.101Z,4.35
2022-10-09T19:01:13.256Z,4.35
2022-10-09T19:03:45.925Z,4.25
2022-10-09T19:06:16.673Z,4.60
2022-10-09T19:08:43.964Z,4.72
2022-10-09T19:11:13.928Z,4.13
2022-10-09T19:13:41.861Z,4.20
2022-10-09T19:16:09.766Z,5.22
2022-10-09T19:18:37.634Z,4.75
2022-10-09T19:21:05.584Z,5.05
2022-10-09T19:23:32.707Z,4.68
2022-10-09T19:25:59.906Z,4.93
2022-10-09T19:28:30.440Z,5.32
2022-10-09T19:30:57.709Z,5.00
2022-10-09T19:33:24.881Z,4.88
2022-10-09T19:35:53.403Z,5.38
2022-10-09T19:38:20.944Z,5.03
2022-10-09T19:40:48.310Z,5.00
2022-10-09T19:43:15.923Z,5.18
2022-10-09T19:45:43.177Z,5.47
2022-10-09T19:48:10.302Z,5.30
2022-10-09T19:50:43.030Z,5.20
2022-10-09T19:53:10.657Z,5.13
2022-10-09T19:55:37.859Z,5.35
2022-10-09T19:58:05.046Z,5.22
2022-10-09T20:00:32.182Z,5.50
2022-10-09T20:02:59.321Z,5.28
2022-10-09T20:05:26.797Z,5.43
2022-10-09T20:07:53.911Z,5.20
2022-10-09T20:10:21.033Z,4.85
2022-10-09T20:12:48.521Z,5.00
2022-10-09T20:15:15.918Z,5.75
2022-10-09T20:17:43.108Z,5.78
2022-10-09T20:20:10.651Z,5.20
2022-10-09T20:22:37.869Z,5.10
2022-10-09T20:25:05.661Z,5.10
2022-10-09T20:27:32.845Z,5.53
2022-10-09T20:29:59.966Z,4.90
2022-10-09T20:32:28.994Z,5.30
2022-10-09T20:34:57.909Z,4.90
2022-10-09T20:37:25.131Z,5.13
2022-10-09T20:39:52.242Z,4.95
2022-10-09T20:42:19.412Z,4.57
2022-10-09T20:44:46.523Z,4.93
2022-10-09T20:47:13.743Z,4.80
2022-10-09T20:49:43.495Z,4.80
2022-10-09T20:52:10.666Z,4.68
2022-10-09T20:54:37.811Z,4.90
2022-10-09T20:57:04.975Z,5.85
2022-10-09T20:59:32.102Z,5.45
2022-10-09T21:01:59.269Z,4.93
2022-10-09T21:04:26.459Z,4.68
2022-10-09T21:06:53.636Z,4.75
2022-10-09T21:09:20.810Z,5.07
2022-10-09T21:11:47.917Z,4.45
2022-10-09T21:14:15.038Z,4.60
2022-10-09T21:16:42.203Z,4.63
2022-10-09T21:19:10.239Z,4.03
2022-10-09T21:21:37.363Z,4.43
2022-10-09T21:24:04.638Z,4.53
2022-10-09T21:26:35.212Z,4.50
2022-10-09T21:29:06.236Z,4.90
2022-10-09T21:31:33.421Z,5.00
2022-10-09T21:34:00.676Z,5.25
2022-10-09T21:37:02.214Z,5.85
2022-10-09T21:39:30.918Z,5.40
2022-10-09T21:41:58.076Z,5.70
2022-10-09T21:44:25.209Z,5.50
2022-10-09T21:46:52.351Z,5.60
2022-10-09T21:49:21.259Z,5.10
2022-10-09T21:51:48.410Z,5.10
2022-10-09T21:54:15.607Z,4.93
2022-10-09T21:56:42.778Z,5.30
2022-10-09T21:59:09.944Z,5.25
2022-10-09T22:01:37.113Z,5.80
2022-10-09T22:04:04.380Z,5.38
2022-10-09T22:06:31.516Z,5.10
2022-10-09T22:08:59.587Z,5.20
2022-10-09T22:11:26.785Z,5.50
2022-10-09T22:13:55.339Z,4.60
2022-10-09T22:16:22.471Z,5.03
2022-10-09T22:18:49.584Z,4.85
2022-10-09T22:21:16.923Z,4.90
2022-10-09T22:23:44.137Z,5.00
2022-10-09T22:26:13.360Z,5.18
2022-10-09T22:28:40.560Z,4.78
2022-10-09T22:31:11.297Z,5.00
2022-10-09T22:33:38.489Z,5.25
2022-10-09T22:36:08.303Z,5.63
2022-10-09T22:38:35.856Z,5.45
2022-10-09T22:41:11.250Z,4.70
2022-10-09T22:43:38.919Z,5.25
2022-10-09T22:46:16.788Z,5.53
2022-10-09T22:48:44.405Z,5.57
2022-10-09T22:51:13.345Z,5.40
2022-10-09T22:53:40.731Z,5.20
2022-10-09T22:56:12.835Z,5.80
2022-10-09T22:58:40.147Z,5.72
2022-10-09T23:01:12.540Z,5.43
2022-10-09T23:03:39.764Z,5.50
2022-10-09T23:06:12.054Z,5.35
2022-10-09T23:08:39.750Z,5.47
2022-10-09T23:11:07.079Z,5.25
2022-10-09T23:13:34.376Z,5.03
2022-10-09T23:16:02.275Z,5.15
2022-10-09T23:18:29.703Z,5.70
2022-10-09T23:20:56.954Z,5.50
2022-10-09T23:23:24.109Z,5.57
2022-10-09T23:25:51.252Z,5.20
2022-10-09T23:28:18.505Z,6.35
2022-10-09T23:30:45.732Z,5.93
2022-10-09T23:33:12.867Z,5.90
2022-10-09T23:35:41.468Z,6.03
2022-10-09T23:38:08.697Z,6.70
2022-10-09T23:40:35.841Z,5.55
2022-10-09T23:43:02.987Z,6.22
2022-10-09T23:45:30.110Z,5.82
2022-10-09T23:47:57.253Z,6.13
2022-10-09T23:50:24.395Z,6.38
2022-10-09T23:52:52.009Z,6.57
2022-10-09T23:55:19.403Z,6.47
2022-10-09T23:57:46.554Z,7.50
